Details From MMCM - CHETUMAL INTL
To MMUN - Cancun International
Flight Number -
Tags decoded
Created
Modified
Stats Distance 176 nm / 326 km
Max Altitude 0 ft / 0 m
Waypoints 3
Social Downloads 0
Likes 0
Share VATSIM

Download

Looking for another format? Having issues loading an existing format? Contact us
Advertisement - Login to hide

Notes

Requested: MMCM OTEDI CZM LIDEK MMUN Unmatched points: OTEDI LIDEK

Route

MMCM CZM MMUN

ID Type Via Altitude Latitude Longitude Leg Dist Tot Dist Heading (true) Name
O MMCM APT - 0 ft / 0 m 18.50467˚ -88.32685˚ - 0 nm - CHETUMAL INTL
CZM NDB - 0 ft / 0 m 20.52195˚ -86.93393˚ 144 nm 144 nm 33° / 33° COZUMEL NDB
O MMUN APT - 0 ft / 0 m 21.04229˚ -86.87333˚ 31 nm 175 nm 6° / 6° Cancun International

Altitude Profile

Advertisement - Login to hide

Weather


0- 5 10 15 20 25 30 35+ Temperature / ° C

Clouds and Precipitation
Forecast for 2018-05-26 12:00 UTC. Updated 3 hours ago

Ground ~20,000 ft ~40,000 ft Winds

MMCM

Details ICAO MMCM (CTM)
Name CHETUMAL INTL
Region Mexico
Timezone America/Cancun (UTC-5.0)
Stats Elevation 39 ft / 12 m (AMSL)
Location 18.504666° -88.326847°
Runways 1
Magnetic Variation 0.739° W

METAR

MMCM 261345Z 33008KT 7SM BKN015 25/23 A2981 RMK 8/600

Decode

TAF

Not found

Departure Runways

ID Width Length Bearing (true) Bearing (mag) Surface Threshold Offset Overrun Length
10 151 ft / 46 m 7,214 ft / 2,199 m 108.17° 108.91° Asphalt 0 ft / 0 m 0 ft / 0 m
28 151 ft / 46 m 7,214 ft / 2,199 m 288.18° 288.92° Asphalt 869 ft / 265 m 0 ft / 0 m

MMUN

Details ICAO MMUN (CUN)
Name Cancun International
Region Mexico
Timezone America/Cancun (UTC-5.0)
Stats Elevation 24 ft / 7 m (AMSL)
Location 21.042287° -86.873333°
Runways 2
Magnetic Variation 1.938° W

METAR

MMUN 261345Z 31008KT 7SM FEW015 26/24 A2977 RMK 8/100

Decode

TAF

Not found

Destination Runways

ID Width Length Bearing (true) Bearing (mag) Surface Threshold Offset Overrun Length
12L 148 ft / 45 m 9,150 ft / 2,789 m 123.62° 125.56° Asphalt 0 ft / 0 m 200 ft / 61 m
12R 190 ft / 58 m 11,459 ft / 3,493 m 123.84° 125.78° Asphalt 0 ft / 0 m 200 ft / 61 m
30L 190 ft / 58 m 11,459 ft / 3,493 m 303.85° 305.79° Asphalt 0 ft / 0 m 200 ft / 61 m
30R 148 ft / 45 m 9,150 ft / 2,789 m 303.63° 305.57° Asphalt 0 ft / 0 m 200 ft / 61 m

Approach Navaids

Runway Type Ident Frequency Range Bearing (true) Bearing (mag) Slope Elevation
12L Localiser INCP 110.70 MHz 18 nm / 33 km 123.63° 125.56° - 20 ft / 6 m (AMSL)
12L Glidescope INCP 110.70 MHz 10 nm / 19 km 123.63° 125.56° 3.00° 20 ft / 6 m (AMSL)
12L DME INCP 110.70 MHz 18 nm / 33 km - - - 20 ft / 6 m (AMSL)
12R Localiser ICUN 111.10 MHz 18 nm / 33 km 123.82° 125.76° - 20 ft / 6 m (AMSL)
12R Glidescope ICUN 111.10 MHz 10 nm / 19 km 123.84° 125.78° 3.00° 20 ft / 6 m (AMSL)
12R DME ICUN 111.10 MHz 18 nm / 33 km - - - 20 ft / 6 m (AMSL)

Popular Alternatives